x

Eel River - 17nm Wsw Of Eureka, Ca (46022) Wave Buoy

7:50am - Tue 21st Apr 2015 All times are PDT. -7 hours from GMT.

  • Sig Wave height 7.9ft
  • Swell Direction
  • Peak Period 12s
  • Average Period 7s
  • Wind
    20mph, 27mph gusts
  • Sea Temp 50°f
  • Air Temp 51°f
  • Sea Pressure 1013.5mb
  • Eel River - 17nm Wsw Of Eureka, Ca
  • Eel River - 17nm Wsw Of Eureka, Ca

More Historic Weather Station data

Upgrade to MSW Pro to gain access to the past 30 days of data for over 8000 Wavebouys and Weather Stations around the globe.

Join Pro

Comparision Forecast

View Surf forecast
   
Tue 04/21 7:50am 8ft 12s 7s 20 27 mph 1013.5mb 50f 51f
6:50am 7ft 13s 7s 22 27 mph 1013.3mb 50f 52f
5:50am 7ft 12s 7s 18 20 mph 1013.4mb 50f 51f
4:50am 8ft 13s 8s 18 22 mph 1013.5mb 50f 51f
3:50am 7.5ft 13s 7s 18 22 mph 1013.5mb 50f 51f
2:50am 8ft 13s 8s 13 18 mph 1013.6mb 50f 51f
1:50am 9ft 14s 8s 16 18 mph 1013.6mb 50f 51f
12:50am 7.5ft 14s 7s 16 18 mph 1013.5mb 50f 51f
Mon 04/20 11:50pm 8.5ft 14s 8s 16 18 mph 1013.6mb 50f 51f
10:50pm 7.5ft 13s 8s 16 20 mph 1013.6mb 51f 51f
9:50pm 8ft 14s 8s 13 18 mph 1013.8mb 51f 52f
8:50pm 8ft 13s 8s 16 20 mph 1013.6mb 51f 52f
7:50pm 8.5ft 12s 8s 13 18 mph 1013.1mb 51f 52f
6:50pm 9ft 13s 8s 16 18 mph 1012.6mb 51f 51f
5:50pm 8ft 12s 8s 18 22 mph 1012.4mb 52f 51f
4:50pm 8ft 12s 8s 18 22 mph 1012.4mb 51f 51f
3:50pm 8ft 13s 8s 11 16 mph 1012.9mb 52f 51f
2:50pm 8ft 14s 8s 11 13 mph 1013.2mb 53f 51f
1:50pm 7ft 13s 7s 4 7 mph 1013.2mb 53f 50f
12:50pm 7.5ft 13s 8s 2
mph
1013.3mb 54f 50f
11:50am 7.5ft 8s 8s 2 4 mph 1013.2mb 53f 50f
10:50am 7.5ft 13s 8s 2 7 mph 1013.3mb 53f 49f
9:50am 7.5ft 9s 8s 4 9 mph 1012.9mb 53f 49f
8:50am 6.5ft 14s 7s 9 11 mph 1012.6mb 53f 49f
7:50am 7ft 8s 7s 7 9 mph 1012.2mb 51f 49f
6:50am 8.5ft 8s 7s 7 9 mph 1011.9mb 51f 49f
5:50am 7.5ft 8s 7s 9 11 mph 1011.7mb 51f 49f
4:50am 7.5ft 14s 7s 13 18 mph 1011.6mb 51f 49f
3:50am 7.5ft 9s 7s 16 18 mph 1011.6mb 51f 49f
2:50am 8ft 9s 7s 16 18 mph 1011.5mb 51f 49f
1:50am 7ft 9s 8s 13 16 mph 1011.9mb 52f 50f
12:50am 7.5ft 8s 8s 13 16 mph 1012.1mb 52f 50f
Sun 04/19 11:50pm 7ft 9s 8s 9 13 mph 1012.4mb 53f 50f
10:50pm 6.5ft 9s 8s 7 9 mph 1012.5mb 53f 50f
9:50pm 8ft 9s 8s 4 7 mph 1012.9mb 53f 50f
8:50pm 7.5ft 9s 8s 4 7 mph 1012.7mb 53f 50f
7:50pm 7ft 9s 8s 2 4 mph 1012.7mb 54f 50f
6:50pm 7ft 9s 7s 4 7 mph 1012.9mb 53f 50f
5:50pm 7ft 9s 7s 7 9 mph 1013.2mb 54f 50f
4:50pm 8ft 10s 8s 9 11 mph 1013.5mb 53f 51f
3:50pm 7.5ft 9s 7s 11 13 mph 1013.8mb 52f 51f
2:50pm 8ft 10s 7s 13 16 mph 1014.2mb 52f 50f
1:50pm 8.5ft 9s 7s 16 18 mph 1014.3mb 51f 50f
12:50pm 9ft 9s 7s 16 18 mph 1014.5mb 51f 49f
11:50am 8.5ft 10s 8s 13 16 mph 1014.5mb 52f 49f
10:50am 8.5ft 9s 7s 9 11 mph 1014.6mb 51f 51f
9:50am 9ft 9s 7s 4 9 mph 1014.4mb 51f 50f
8:50am 8ft 9s 7s  -  2 mph 1014.6mb 51f 52f
7:50am 8.5ft 11s 7s  -  2 mph 1014.6mb 51f 52f
6:50am 9ft 10s 8s 2 4 mph 1014.3mb 51f 51f
5:50am 8.5ft 10s 7s  -  2 mph 1013.9mb 51f 51f
4:50am 9ft 10s 8s 4 7 mph 1013.8mb 51f 51f
3:50am 8.5ft 9s 7s 7 9 mph 1013.8mb 52f 51f
2:50am 9ft 11s 8s 7 9 mph 1013.7mb 52f 51f
1:50am 10ft 9s 8s 4
mph
1013.9mb 52f 51f
12:50am 10ft 10s 8s 2 4 mph 1014mb 52f 52f
Sat 04/18 11:50pm 11ft 13s 8s 2 4 mph 1014.3mb 52f 52f
10:50pm 11.5ft 9s 8s 4 7 mph 1014.8mb 52f 53f
9:50pm 11ft 10s 8s 7 9 mph 1015.5mb 52f 53f
8:50pm 11ft 10s 8s 9 11 mph 1015.9mb 52f 53f
7:50pm 12ft 10s 8s 11 13 mph 1016mb 52f 53f
6:50pm 11.5ft 9s 7s 9 11 mph 1017.3mb 52f 53f
5:50pm 11ft 10s 7s 13 18 mph 1017.5mb 52f 54f
4:50pm 11ft 13s 8s 13 16 mph 1017.6mb 52f 54f
3:50pm 11ft 13s 8s 13 16 mph 1017.8mb 52f 54f
2:50pm 11ft 10s 7s 13 16 mph 1018.2mb 52f 54f
1:50pm 10.5ft 9s 7s 13 18 mph 1018.4mb 51f 53f
12:50pm 10.5ft 13s 8s 16 18 mph 1018.7mb 51f 52f
11:50am 11ft 9s 8s 18 20 mph 1019.2mb 51f 52f
10:50am 10ft 14s 8s 18 22 mph 1019.5mb 51f 52f
9:50am 10.5ft 14s 8s 22 27 mph 1019.5mb 51f 52f
8:50am 11ft 12s 8s 18 22 mph 1019.9mb 52f 51f
7:50am 10.5ft 9s 8s 22 27 mph 1019.8mb 52f 51f
6:50am 12ft 14s 8s 25 29 mph 1019.6mb 52f 51f
5:50am 11ft 14s 7s 27 31 mph 1019.6mb 52f 52f
4:50am 11.5ft 14s 8s 27 31 mph 1019.6mb 52f 52f
3:50am 11ft 14s 7s 27 31 mph 1019.5mb 52f 52f
2:50am 13ft 10s 8s 22 27 mph 1019.5mb 52f 52f
1:50am 13.5ft 14s 8s 20 25 mph 1019.5mb 52f 52f
12:50am 13ft 13s 8s 27 34 mph 1019.4mb 52f 52f
Fri 04/17 11:50pm 12ft 15s 8s 20 27 mph 1020.4mb 52f 53f
10:50pm 11.5ft 9s 8s 13 16 mph 1020.7mb 52f 54f
9:50pm 12ft 16s 8s 9 11 mph 1020.7mb 52f 53f
8:50pm 12ft 15s 8s 9 11 mph 1020.5mb 52f 53f
7:50pm 11ft 15s 9s 9 11 mph 1020.6mb 52f 53f
6:50pm 11.5ft 15s 9s 18 22 mph 1020.7mb 52f 54f
5:50pm 12ft 16s 9s 16 18 mph 1021mb 52f 54f
4:50pm 11.5ft 16s 9s 13 16 mph 1021mb 52f 54f